sensor_id;sensor_type;location;lat;lon;timestamp;P1;durP1;ratioP1;P2;durP2;ratioP2
73337;SDS011;61575;49.908;35.556;2022-10-16T00:02:21;18.02;;;10.25;;
73337;SDS011;61575;49.908;35.556;2022-10-16T00:05:23;17.48;;;9.10;;
73337;SDS011;61575;49.908;35.556;2022-10-16T00:08:25;17.37;;;9.60;;
73337;SDS011;61575;49.908;35.556;2022-10-16T00:11:28;15.80;;;9.13;;
73337;SDS011;61575;49.908;35.556;2022-10-16T00:14:32;18.48;;;9.50;;
73337;SDS011;61575;49.908;35.556;2022-10-16T00:17:33;15.70;;;9.48;;
73337;SDS011;61575;49.908;35.556;2022-10-16T00:20:35;17.58;;;10.00;;
73337;SDS011;61575;49.908;35.556;2022-10-16T00:23:38;17.48;;;10.70;;
73337;SDS011;61575;49.908;35.556;2022-10-16T00:26:40;17.35;;;10.68;;
73337;SDS011;61575;49.908;35.556;2022-10-16T00:29:42;18.55;;;10.85;;
73337;SDS011;61575;49.908;35.556;2022-10-16T00:32:44;17.42;;;10.95;;
73337;SDS011;61575;49.908;35.556;2022-10-16T00:35:46;21.30;;;11.68;;
73337;SDS011;61575;49.908;35.556;2022-10-16T00:38:52;18.60;;;10.40;;
73337;SDS011;61575;49.908;35.556;2022-10-16T00:41:56;21.95;;;11.32;;
73337;SDS011;61575;49.908;35.556;2022-10-16T00:44:58;22.75;;;12.32;;
73337;SDS011;61575;49.908;35.556;2022-10-16T00:47:59;21.52;;;11.27;;
73337;SDS011;61575;49.908;35.556;2022-10-16T00:51:02;23.73;;;12.40;;
73337;SDS011;61575;49.908;35.556;2022-10-16T00:54:16;22.92;;;12.13;;
73337;SDS011;61575;49.908;35.556;2022-10-16T00:57:22;24.83;;;12.50;;
73337;SDS011;61575;49.908;35.556;2022-10-16T01:00:25;21.15;;;11.98;;
73337;SDS011;61575;49.908;35.556;2022-10-16T01:03:32;22.27;;;12.18;;
73337;SDS011;61575;49.908;35.556;2022-10-16T01:06:43;18.75;;;11.48;;
73337;SDS011;61575;49.908;35.556;2022-10-16T01:13:06;18.85;;;10.60;;
73337;SDS011;61575;49.908;35.556;2022-10-16T01:16:19;18.98;;;10.70;;
73337;SDS011;61575;49.908;35.556;2022-10-16T01:22:37;16.38;;;10.80;;
73337;SDS011;61575;49.908;35.556;2022-10-16T01:32:38;17.33;;;10.15;;
73337;SDS011;61575;49.908;35.556;2022-10-16T01:35:47;18.33;;;9.82;;
73337;SDS011;61575;49.908;35.556;2022-10-16T01:38:56;14.45;;;9.32;;
73337;SDS011;61575;49.908;35.556;2022-10-16T01:42:16;19.67;;;11.05;;
73337;SDS011;61575;49.908;35.556;2022-10-16T01:45:23;20.38;;;11.75;;
73337;SDS011;61575;49.908;35.556;2022-10-16T01:48:25;16.63;;;10.53;;
73337;SDS011;61575;49.908;35.556;2022-10-16T01:51:27;17.45;;;10.75;;
73337;SDS011;61575;49.908;35.556;2022-10-16T01:54:30;16.60;;;10.18;;
73337;SDS011;61575;49.908;35.556;2022-10-16T01:57:35;17.90;;;10.35;;
73337;SDS011;61575;49.908;35.556;2022-10-16T02:00:42;18.63;;;10.02;;
73337;SDS011;61575;49.908;35.556;2022-10-16T02:03:46;18.00;;;10.48;;
73337;SDS011;61575;49.908;35.556;2022-10-16T02:06:53;18.13;;;10.60;;
73337;SDS011;61575;49.908;35.556;2022-10-16T02:09:55;22.58;;;10.95;;
73337;SDS011;61575;49.908;35.556;2022-10-16T02:12:59;18.40;;;9.25;;
73337;SDS011;61575;49.908;35.556;2022-10-16T02:16:08;15.77;;;9.55;;
73337;SDS011;61575;49.908;35.556;2022-10-16T02:19:12;19.25;;;9.90;;
73337;SDS011;61575;49.908;35.556;2022-10-16T02:22:16;18.13;;;10.07;;
73337;SDS011;61575;49.908;35.556;2022-10-16T02:25:31;18.13;;;10.38;;
73337;SDS011;61575;49.908;35.556;2022-10-16T02:28:45;16.83;;;10.15;;
73337;SDS011;61575;49.908;35.556;2022-10-16T02:31:58;16.33;;;9.80;;
73337;SDS011;61575;49.908;35.556;2022-10-16T02:35:03;17.80;;;9.23;;
73337;SDS011;61575;49.908;35.556;2022-10-16T02:38:06;13.82;;;8.50;;
73337;SDS011;61575;49.908;35.556;2022-10-16T02:41:15;14.77;;;8.93;;
73337;SDS011;61575;49.908;35.556;2022-10-16T02:44:17;16.48;;;9.13;;
73337;SDS011;61575;49.908;35.556;2022-10-16T02:47:19;15.38;;;9.05;;
73337;SDS011;61575;49.908;35.556;2022-10-16T02:50:21;15.80;;;8.63;;
73337;SDS011;61575;49.908;35.556;2022-10-16T02:53:23;14.60;;;9.20;;
73337;SDS011;61575;49.908;35.556;2022-10-16T02:56:25;14.77;;;8.30;;
73337;SDS011;61575;49.908;35.556;2022-10-16T02:59:27;18.10;;;8.57;;
73337;SDS011;61575;49.908;35.556;2022-10-16T03:02:29;14.33;;;7.80;;
73337;SDS011;61575;49.908;35.556;2022-10-16T03:05:31;15.38;;;8.85;;
73337;SDS011;61575;49.908;35.556;2022-10-16T03:08:32;14.77;;;9.00;;
73337;SDS011;61575;49.908;35.556;2022-10-16T03:11:34;13.48;;;8.00;;
73337;SDS011;61575;49.908;35.556;2022-10-16T03:14:36;13.50;;;8.50;;
73337;SDS011;61575;49.908;35.556;2022-10-16T03:17:38;16.90;;;8.85;;
73337;SDS011;61575;49.908;35.556;2022-10-16T03:20:40;19.08;;;9.68;;
73337;SDS011;61575;49.908;35.556;2022-10-16T03:23:42;21.98;;;10.15;;
73337;SDS011;61575;49.908;35.556;2022-10-16T03:26:43;22.73;;;10.73;;
73337;SDS011;61575;49.908;35.556;2022-10-16T03:29:45;25.30;;;12.10;;
73337;SDS011;61575;49.908;35.556;2022-10-16T03:32:47;23.35;;;11.27;;
73337;SDS011;61575;49.908;35.556;2022-10-16T03:35:52;24.48;;;11.40;;
73337;SDS011;61575;49.908;35.556;2022-10-16T03:38:55;20.33;;;10.38;;
73337;SDS011;61575;49.908;35.556;2022-10-16T03:41:57;23.25;;;11.35;;
73337;SDS011;61575;49.908;35.556;2022-10-16T03:44:59;21.00;;;10.55;;
73337;SDS011;61575;49.908;35.556;2022-10-16T03:48:01;19.67;;;10.50;;
73337;SDS011;61575;49.908;35.556;2022-10-16T03:51:04;18.30;;;10.30;;
73337;SDS011;61575;49.908;35.556;2022-10-16T03:54:06;17.98;;;9.45;;
73337;SDS011;61575;49.908;35.556;2022-10-16T03:57:08;18.25;;;9.68;;
73337;SDS011;61575;49.908;35.556;2022-10-16T04:00:10;16.38;;;9.13;;
73337;SDS011;61575;49.908;35.556;2022-10-16T04:06:14;16.17;;;8.18;;
73337;SDS011;61575;49.908;35.556;2022-10-16T04:09:16;15.10;;;8.48;;
73337;SDS011;61575;49.908;35.556;2022-10-16T04:12:18;16.85;;;8.45;;
73337;SDS011;61575;49.908;35.556;2022-10-16T04:15:20;17.40;;;8.82;;
73337;SDS011;61575;49.908;35.556;2022-10-16T04:18:21;17.55;;;8.90;;
73337;SDS011;61575;49.908;35.556;2022-10-16T04:21:24;12.85;;;6.82;;
73337;SDS011;61575;49.908;35.556;2022-10-16T04:24:26;17.08;;;8.60;;
73337;SDS011;61575;49.908;35.556;2022-10-16T04:27:28;19.80;;;9.27;;
73337;SDS011;61575;49.908;35.556;2022-10-16T04:30:30;16.45;;;8.55;;
73337;SDS011;61575;49.908;35.556;2022-10-16T04:33:33;18.83;;;9.57;;
73337;SDS011;61575;49.908;35.556;2022-10-16T04:36:35;17.05;;;8.82;;
73337;SDS011;61575;49.908;35.556;2022-10-16T04:39:36;20.45;;;10.73;;
73337;SDS011;61575;49.908;35.556;2022-10-16T04:42:38;15.27;;;8.93;;
73337;SDS011;61575;49.908;35.556;2022-10-16T04:45:40;19.58;;;10.07;;
73337;SDS011;61575;49.908;35.556;2022-10-16T04:48:42;19.35;;;10.10;;
73337;SDS011;61575;49.908;35.556;2022-10-16T04:51:44;16.50;;;9.50;;
73337;SDS011;61575;49.908;35.556;2022-10-16T04:54:46;16.55;;;9.23;;
73337;SDS011;61575;49.908;35.556;2022-10-16T04:57:47;15.65;;;8.88;;
73337;SDS011;61575;49.908;35.556;2022-10-16T05:00:49;15.20;;;7.75;;
73337;SDS011;61575;49.908;35.556;2022-10-16T05:03:51;13.30;;;8.20;;
73337;SDS011;61575;49.908;35.556;2022-10-16T05:06:53;12.63;;;7.63;;
73337;SDS011;61575;49.908;35.556;2022-10-16T05:09:55;12.15;;;7.57;;
73337;SDS011;61575;49.908;35.556;2022-10-16T05:12:57;14.23;;;7.93;;
73337;SDS011;61575;49.908;35.556;2022-10-16T05:15:58;10.85;;;6.82;;
73337;SDS011;61575;49.908;35.556;2022-10-16T05:19:00;13.00;;;7.50;;
73337;SDS011;61575;49.908;35.556;2022-10-16T05:22:22;12.88;;;7.72;;
73337;SDS011;61575;49.908;35.556;2022-10-16T05:25:24;14.35;;;7.68;;
73337;SDS011;61575;49.908;35.556;2022-10-16T05:28:26;13.85;;;7.90;;
73337;SDS011;61575;49.908;35.556;2022-10-16T05:31:29;13.77;;;7.45;;
73337;SDS011;61575;49.908;35.556;2022-10-16T05:34:31;14.90;;;7.88;;
73337;SDS011;61575;49.908;35.556;2022-10-16T05:37:33;13.75;;;7.68;;
73337;SDS011;61575;49.908;35.556;2022-10-16T05:40:35;23.65;;;13.98;;
73337;SDS011;61575;49.908;35.556;2022-10-16T05:43:36;15.57;;;9.85;;
73337;SDS011;61575;49.908;35.556;2022-10-16T05:46:38;20.75;;;11.95;;
73337;SDS011;61575;49.908;35.556;2022-10-16T05:49:40;16.65;;;10.38;;
73337;SDS011;61575;49.908;35.556;2022-10-16T05:52:42;16.15;;;9.52;;
73337;SDS011;61575;49.908;35.556;2022-10-16T05:55:44;13.60;;;8.73;;
73337;SDS011;61575;49.908;35.556;2022-10-16T05:58:53;17.52;;;8.88;;
73337;SDS011;61575;49.908;35.556;2022-10-16T06:01:55;14.98;;;8.45;;
73337;SDS011;61575;49.908;35.556;2022-10-16T06:04:56;13.35;;;8.02;;
73337;SDS011;61575;49.908;35.556;2022-10-16T06:07:58;13.80;;;8.18;;
73337;SDS011;61575;49.908;35.556;2022-10-16T06:11:03;14.05;;;8.30;;
73337;SDS011;61575;49.908;35.556;2022-10-16T06:14:07;11.93;;;7.55;;
73337;SDS011;61575;49.908;35.556;2022-10-16T06:17:10;17.90;;;8.88;;
73337;SDS011;61575;49.908;35.556;2022-10-16T06:20:12;17.00;;;8.35;;
73337;SDS011;61575;49.908;35.556;2022-10-16T06:23:13;14.43;;;8.57;;
73337;SDS011;61575;49.908;35.556;2022-10-16T06:26:16;11.95;;;8.18;;
73337;SDS011;61575;49.908;35.556;2022-10-16T06:29:20;11.32;;;7.80;;
73337;SDS011;61575;49.908;35.556;2022-10-16T06:32:22;11.13;;;7.78;;
73337;SDS011;61575;49.908;35.556;2022-10-16T06:35:24;12.18;;;8.25;;
73337;SDS011;61575;49.908;35.556;2022-10-16T06:38:25;13.13;;;7.30;;
73337;SDS011;61575;49.908;35.556;2022-10-16T06:41:27;10.23;;;7.00;;
73337;SDS011;61575;49.908;35.556;2022-10-16T06:44:30;12.48;;;8.27;;
73337;SDS011;61575;49.908;35.556;2022-10-16T06:47:32;17.38;;;8.25;;
73337;SDS011;61575;49.908;35.556;2022-10-16T06:50:34;11.45;;;7.50;;
73337;SDS011;61575;49.908;35.556;2022-10-16T06:53:36;10.75;;;6.90;;
73337;SDS011;61575;49.908;35.556;2022-10-16T06:57:01;10.20;;;7.15;;
73337;SDS011;61575;49.908;35.556;2022-10-16T07:00:03;9.98;;;6.07;;
73337;SDS011;61575;49.908;35.556;2022-10-16T07:06:09;10.18;;;6.20;;
73337;SDS011;61575;49.908;35.556;2022-10-16T07:09:12;7.97;;;5.50;;
73337;SDS011;61575;49.908;35.556;2022-10-16T07:12:14;8.68;;;5.97;;
73337;SDS011;61575;49.908;35.556;2022-10-16T07:15:16;9.63;;;6.00;;
73337;SDS011;61575;49.908;35.556;2022-10-16T07:18:18;8.05;;;4.97;;
73337;SDS011;61575;49.908;35.556;2022-10-16T07:21:20;9.75;;;5.15;;
73337;SDS011;61575;49.908;35.556;2022-10-16T07:24:23;23.80;;;9.25;;
73337;SDS011;61575;49.908;35.556;2022-10-16T07:27:26;12.95;;;6.78;;
73337;SDS011;61575;49.908;35.556;2022-10-16T07:30:28;10.20;;;6.50;;
73337;SDS011;61575;49.908;35.556;2022-10-16T07:33:30;8.98;;;5.15;;
73337;SDS011;61575;49.908;35.556;2022-10-16T07:36:32;9.35;;;5.65;;
73337;SDS011;61575;49.908;35.556;2022-10-16T07:39:34;8.10;;;5.20;;
73337;SDS011;61575;49.908;35.556;2022-10-16T07:42:36;8.38;;;4.93;;
73337;SDS011;61575;49.908;35.556;2022-10-16T07:45:40;8.63;;;5.45;;
73337;SDS011;61575;49.908;35.556;2022-10-16T07:48:49;8.52;;;5.25;;
73337;SDS011;61575;49.908;35.556;2022-10-16T07:54:53;8.73;;;5.28;;
73337;SDS011;61575;49.908;35.556;2022-10-16T07:58:00;7.00;;;4.88;;
73337;SDS011;61575;49.908;35.556;2022-10-16T08:01:12;8.48;;;5.38;;
73337;SDS011;61575;49.908;35.556;2022-10-16T08:07:17;8.85;;;5.03;;
73337;SDS011;61575;49.908;35.556;2022-10-16T08:10:19;8.88;;;5.40;;
73337;SDS011;61575;49.908;35.556;2022-10-16T08:13:22;9.00;;;4.90;;
73337;SDS011;61575;49.908;35.556;2022-10-16T08:16:24;11.30;;;6.38;;
73337;SDS011;61575;49.908;35.556;2022-10-16T08:19:26;10.70;;;5.40;;
73337;SDS011;61575;49.908;35.556;2022-10-16T08:22:28;7.65;;;5.05;;
73337;SDS011;61575;49.908;35.556;2022-10-16T08:25:30;8.75;;;5.43;;
73337;SDS011;61575;49.908;35.556;2022-10-16T08:28:32;6.78;;;4.68;;
73337;SDS011;61575;49.908;35.556;2022-10-16T08:31:34;7.13;;;4.03;;
73337;SDS011;61575;49.908;35.556;2022-10-16T08:34:35;5.95;;;3.92;;
73337;SDS011;61575;49.908;35.556;2022-10-16T08:37:37;6.13;;;3.87;;
73337;SDS011;61575;49.908;35.556;2022-10-16T08:40:41;6.73;;;3.37;;
73337;SDS011;61575;49.908;35.556;2022-10-16T08:50:36;5.63;;;3.20;;
73337;SDS011;61575;49.908;35.556;2022-10-16T08:57:11;6.25;;;3.67;;
73337;SDS011;61575;49.908;35.556;2022-10-16T09:00:24;7.97;;;5.63;;
73337;SDS011;61575;49.908;35.556;2022-10-16T09:17:30;6.78;;;3.88;;
73337;SDS011;61575;49.908;35.556;2022-10-16T09:20:53;5.25;;;2.97;;
73337;SDS011;61575;49.908;35.556;2022-10-16T09:24:06;6.93;;;3.33;;
73337;SDS011;61575;49.908;35.556;2022-10-16T09:27:14;6.15;;;3.50;;
73337;SDS011;61575;49.908;35.556;2022-10-16T09:30:18;6.20;;;3.35;;
73337;SDS011;61575;49.908;35.556;2022-10-16T09:33:23;7.00;;;3.40;;
73337;SDS011;61575;49.908;35.556;2022-10-16T09:36:49;6.85;;;3.75;;
73337;SDS011;61575;49.908;35.556;2022-10-16T09:39:53;9.70;;;3.97;;
73337;SDS011;61575;49.908;35.556;2022-10-16T09:43:01;7.95;;;3.67;;
73337;SDS011;61575;49.908;35.556;2022-10-16T09:49:24;6.80;;;3.63;;
73337;SDS011;61575;49.908;35.556;2022-10-16T09:52:28;8.02;;;3.53;;
73337;SDS011;61575;49.908;35.556;2022-10-16T09:55:30;5.60;;;3.35;;
73337;SDS011;61575;49.908;35.556;2022-10-16T09:58:32;9.13;;;4.00;;
73337;SDS011;61575;49.908;35.556;2022-10-16T10:01:42;10.13;;;5.85;;
73337;SDS011;61575;49.908;35.556;2022-10-16T10:04:52;7.38;;;5.72;;
73337;SDS011;61575;49.908;35.556;2022-10-16T10:07:56;7.90;;;5.20;;
73337;SDS011;61575;49.908;35.556;2022-10-16T10:11:07;10.25;;;6.63;;
73337;SDS011;61575;49.908;35.556;2022-10-16T10:14:20;7.63;;;4.18;;
73337;SDS011;61575;49.908;35.556;2022-10-16T10:17:27;11.43;;;5.50;;
73337;SDS011;61575;49.908;35.556;2022-10-16T10:20:30;7.65;;;3.90;;
73337;SDS011;61575;49.908;35.556;2022-10-16T10:23:36;7.45;;;4.20;;
73337;SDS011;61575;49.908;35.556;2022-10-16T10:26:38;12.57;;;5.00;;
73337;SDS011;61575;49.908;35.556;2022-10-16T10:30:02;8.30;;;3.97;;
73337;SDS011;61575;49.908;35.556;2022-10-16T10:33:24;6.78;;;3.90;;
73337;SDS011;61575;49.908;35.556;2022-10-16T10:36:34;8.93;;;5.38;;
73337;SDS011;61575;49.908;35.556;2022-10-16T10:39:41;7.55;;;4.05;;
73337;SDS011;61575;49.908;35.556;2022-10-16T10:42:53;8.48;;;4.55;;
73337;SDS011;61575;49.908;35.556;2022-10-16T10:46:00;8.32;;;5.07;;
73337;SDS011;61575;49.908;35.556;2022-10-16T11:09:34;6.90;;;4.40;;
73337;SDS011;61575;49.908;35.556;2022-10-16T11:12:45;7.45;;;4.07;;
73337;SDS011;61575;49.908;35.556;2022-10-16T11:15:51;8.15;;;4.22;;
73337;SDS011;61575;49.908;35.556;2022-10-16T11:22:18;8.15;;;4.80;;
73337;SDS011;61575;49.908;35.556;2022-10-16T11:25:32;10.13;;;5.07;;
73337;SDS011;61575;49.908;35.556;2022-10-16T11:28:41;6.68;;;4.38;;
73337;SDS011;61575;49.908;35.556;2022-10-16T11:31:55;7.38;;;4.10;;
73337;SDS011;61575;49.908;35.556;2022-10-16T11:35:07;7.78;;;4.47;;
73337;SDS011;61575;49.908;35.556;2022-10-16T11:44:56;8.40;;;5.18;;
73337;SDS011;61575;49.908;35.556;2022-10-16T11:48:07;14.15;;;5.88;;
73337;SDS011;61575;49.908;35.556;2022-10-16T11:51:25;11.45;;;6.22;;
73337;SDS011;61575;49.908;35.556;2022-10-16T11:54:52;7.63;;;4.57;;
73337;SDS011;61575;49.908;35.556;2022-10-16T11:58:03;9.15;;;4.65;;
73337;SDS011;61575;49.908;35.556;2022-10-16T12:01:17;8.88;;;4.70;;
73337;SDS011;61575;49.908;35.556;2022-10-16T12:04:31;6.68;;;4.15;;
73337;SDS011;61575;49.908;35.556;2022-10-16T12:08:11;20.43;;;5.80;;
73337;SDS011;61575;49.908;35.556;2022-10-16T12:11:23;8.40;;;4.20;;
73337;SDS011;61575;49.908;35.556;2022-10-16T12:17:37;9.45;;;4.05;;
73337;SDS011;61575;49.908;35.556;2022-10-16T12:20:40;6.07;;;3.88;;
73337;SDS011;61575;49.908;35.556;2022-10-16T12:26:59;8.03;;;3.73;;
73337;SDS011;61575;49.908;35.556;2022-10-16T12:30:03;6.57;;;4.30;;
73337;SDS011;61575;49.908;35.556;2022-10-16T12:33:23;6.90;;;3.80;;
73337;SDS011;61575;49.908;35.556;2022-10-16T12:36:28;8.45;;;4.07;;
73337;SDS011;61575;49.908;35.556;2022-10-16T12:39:33;7.00;;;4.10;;
73337;SDS011;61575;49.908;35.556;2022-10-16T12:45:38;9.82;;;3.78;;
73337;SDS011;61575;49.908;35.556;2022-10-16T12:48:41;8.32;;;4.70;;
73337;SDS011;61575;49.908;35.556;2022-10-16T12:52:02;11.60;;;8.63;;
73337;SDS011;61575;49.908;35.556;2022-10-16T12:55:05;9.60;;;5.07;;
73337;SDS011;61575;49.908;35.556;2022-10-16T12:58:28;7.82;;;4.45;;
73337;SDS011;61575;49.908;35.556;2022-10-16T13:01:49;8.30;;;4.18;;
73337;SDS011;61575;49.908;35.556;2022-10-16T13:28:22;7.70;;;4.28;;
73337;SDS011;61575;49.908;35.556;2022-10-16T13:31:31;10.13;;;5.55;;
73337;SDS011;61575;49.908;35.556;2022-10-16T13:37:44;9.32;;;4.93;;
73337;SDS011;61575;49.908;35.556;2022-10-16T13:40:50;7.95;;;4.10;;
73337;SDS011;61575;49.908;35.556;2022-10-16T13:44:01;9.63;;;5.60;;
73337;SDS011;61575;49.908;35.556;2022-10-16T13:47:03;10.32;;;7.35;;
73337;SDS011;61575;49.908;35.556;2022-10-16T13:50:09;9.48;;;6.50;;
73337;SDS011;61575;49.908;35.556;2022-10-16T13:53:14;9.23;;;6.53;;
73337;SDS011;61575;49.908;35.556;2022-10-16T13:56:17;8.75;;;5.60;;
73337;SDS011;61575;49.908;35.556;2022-10-16T13:59:24;14.60;;;8.43;;
73337;SDS011;61575;49.908;35.556;2022-10-16T14:02:37;29.25;;;16.17;;
73337;SDS011;61575;49.908;35.556;2022-10-16T14:05:54;20.25;;;9.70;;
73337;SDS011;61575;49.908;35.556;2022-10-16T14:12:32;14.02;;;4.80;;
73337;SDS011;61575;49.908;35.556;2022-10-16T14:15:35;7.43;;;4.38;;
73337;SDS011;61575;49.908;35.556;2022-10-16T14:18:38;8.48;;;3.70;;
73337;SDS011;61575;49.908;35.556;2022-10-16T14:21:41;9.93;;;4.78;;
73337;SDS011;61575;49.908;35.556;2022-10-16T14:24:43;16.58;;;6.45;;
73337;SDS011;61575;49.908;35.556;2022-10-16T14:27:45;19.45;;;6.28;;
73337;SDS011;61575;49.908;35.556;2022-10-16T14:30:59;13.35;;;6.53;;
73337;SDS011;61575;49.908;35.556;2022-10-16T14:34:02;15.75;;;7.28;;
73337;SDS011;61575;49.908;35.556;2022-10-16T14:37:15;51.50;;;20.58;;
73337;SDS011;61575;49.908;35.556;2022-10-16T14:40:32;452.30;;;175.75;;
73337;SDS011;61575;49.908;35.556;2022-10-16T14:46:40;112.18;;;44.28;;
73337;SDS011;61575;49.908;35.556;2022-10-16T14:49:44;44.28;;;19.67;;
73337;SDS011;61575;49.908;35.556;2022-10-16T14:52:45;38.38;;;19.02;;
73337;SDS011;61575;49.908;35.556;2022-10-16T14:55:47;52.33;;;23.73;;
73337;SDS011;61575;49.908;35.556;2022-10-16T14:58:50;61.25;;;31.90;;
73337;SDS011;61575;49.908;35.556;2022-10-16T15:01:53;54.70;;;28.88;;
73337;SDS011;61575;49.908;35.556;2022-10-16T15:04:55;57.28;;;34.60;;
73337;SDS011;61575;49.908;35.556;2022-10-16T15:11:00;61.58;;;36.53;;
73337;SDS011;61575;49.908;35.556;2022-10-16T15:14:02;72.75;;;35.25;;
73337;SDS011;61575;49.908;35.556;2022-10-16T15:17:05;105.80;;;49.30;;
73337;SDS011;61575;49.908;35.556;2022-10-16T15:20:06;147.30;;;73.82;;
73337;SDS011;61575;49.908;35.556;2022-10-16T15:23:16;142.33;;;68.07;;
73337;SDS011;61575;49.908;35.556;2022-10-16T15:26:19;185.02;;;91.28;;
73337;SDS011;61575;49.908;35.556;2022-10-16T15:29:21;218.13;;;110.85;;
73337;SDS011;61575;49.908;35.556;2022-10-16T15:32:23;206.60;;;102.07;;
73337;SDS011;61575;49.908;35.556;2022-10-16T15:35:25;122.55;;;62.13;;
73337;SDS011;61575;49.908;35.556;2022-10-16T15:38:27;99.40;;;48.22;;
73337;SDS011;61575;49.908;35.556;2022-10-16T15:41:30;109.53;;;50.63;;
73337;SDS011;61575;49.908;35.556;2022-10-16T15:44:32;107.70;;;50.07;;
73337;SDS011;61575;49.908;35.556;2022-10-16T15:47:33;261.00;;;108.47;;
73337;SDS011;61575;49.908;35.556;2022-10-16T15:50:35;309.33;;;128.63;;
73337;SDS011;61575;49.908;35.556;2022-10-16T15:53:39;270.98;;;118.13;;
73337;SDS011;61575;49.908;35.556;2022-10-16T15:56:41;290.52;;;122.00;;
73337;SDS011;61575;49.908;35.556;2022-10-16T15:59:43;249.13;;;111.30;;
73337;SDS011;61575;49.908;35.556;2022-10-16T16:02:49;89.40;;;43.13;;
73337;SDS011;61575;49.908;35.556;2022-10-16T16:05:53;129.05;;;59.22;;
73337;SDS011;61575;49.908;35.556;2022-10-16T16:08:55;136.93;;;59.85;;
73337;SDS011;61575;49.908;35.556;2022-10-16T16:11:57;115.95;;;53.63;;
73337;SDS011;61575;49.908;35.556;2022-10-16T16:15:01;124.88;;;57.05;;
73337;SDS011;61575;49.908;35.556;2022-10-16T16:18:06;124.63;;;52.88;;
73337;SDS011;61575;49.908;35.556;2022-10-16T16:21:12;169.68;;;72.82;;
73337;SDS011;61575;49.908;35.556;2022-10-16T16:24:14;183.05;;;79.07;;
73337;SDS011;61575;49.908;35.556;2022-10-16T16:27:16;268.17;;;111.55;;
73337;SDS011;61575;49.908;35.556;2022-10-16T16:30:18;89.00;;;43.03;;
73337;SDS011;61575;49.908;35.556;2022-10-16T16:33:27;65.85;;;34.70;;
73337;SDS011;61575;49.908;35.556;2022-10-16T16:36:29;63.08;;;32.35;;
73337;SDS011;61575;49.908;35.556;2022-10-16T16:39:31;52.72;;;26.63;;
73337;SDS011;61575;49.908;35.556;2022-10-16T16:42:33;47.30;;;25.63;;
73337;SDS011;61575;49.908;35.556;2022-10-16T16:45:35;87.88;;;38.53;;
73337;SDS011;61575;49.908;35.556;2022-10-16T16:48:37;66.10;;;30.50;;
73337;SDS011;61575;49.908;35.556;2022-10-16T16:51:40;74.25;;;33.55;;
73337;SDS011;61575;49.908;35.556;2022-10-16T16:54:42;75.03;;;35.03;;
73337;SDS011;61575;49.908;35.556;2022-10-16T16:57:47;67.57;;;31.50;;
73337;SDS011;61575;49.908;35.556;2022-10-16T17:00:49;61.50;;;30.90;;
73337;SDS011;61575;49.908;35.556;2022-10-16T17:03:58;56.80;;;30.10;;
73337;SDS011;61575;49.908;35.556;2022-10-16T17:07:01;60.53;;;32.15;;
73337;SDS011;61575;49.908;35.556;2022-10-16T17:10:02;66.57;;;34.53;;
73337;SDS011;61575;49.908;35.556;2022-10-16T17:13:04;58.27;;;32.73;;
73337;SDS011;61575;49.908;35.556;2022-10-16T17:16:06;59.50;;;33.03;;
73337;SDS011;61575;49.908;35.556;2022-10-16T17:19:13;59.40;;;32.53;;
73337;SDS011;61575;49.908;35.556;2022-10-16T17:22:16;56.97;;;30.90;;
73337;SDS011;61575;49.908;35.556;2022-10-16T17:25:19;50.83;;;30.35;;
73337;SDS011;61575;49.908;35.556;2022-10-16T17:28:24;49.72;;;28.17;;
73337;SDS011;61575;49.908;35.556;2022-10-16T17:31:27;45.43;;;25.63;;
73337;SDS011;61575;49.908;35.556;2022-10-16T17:34:30;38.33;;;22.20;;
73337;SDS011;61575;49.908;35.556;2022-10-16T17:37:32;38.78;;;23.67;;
73337;SDS011;61575;49.908;35.556;2022-10-16T17:40:34;38.30;;;22.90;;
73337;SDS011;61575;49.908;35.556;2022-10-16T17:43:36;40.10;;;21.88;;
73337;SDS011;61575;49.908;35.556;2022-10-16T17:46:38;38.42;;;19.70;;
73337;SDS011;61575;49.908;35.556;2022-10-16T17:49:41;42.78;;;20.13;;
73337;SDS011;61575;49.908;35.556;2022-10-16T17:52:43;36.88;;;20.77;;
73337;SDS011;61575;49.908;35.556;2022-10-16T17:55:45;39.83;;;21.58;;
73337;SDS011;61575;49.908;35.556;2022-10-16T17:58:48;35.15;;;19.08;;
73337;SDS011;61575;49.908;35.556;2022-10-16T18:01:57;35.05;;;19.25;;
73337;SDS011;61575;49.908;35.556;2022-10-16T18:04:59;43.97;;;22.50;;
73337;SDS011;61575;49.908;35.556;2022-10-16T18:08:01;43.22;;;19.90;;
73337;SDS011;61575;49.908;35.556;2022-10-16T18:11:03;41.90;;;21.10;;
73337;SDS011;61575;49.908;35.556;2022-10-16T18:14:05;46.65;;;22.40;;
73337;SDS011;61575;49.908;35.556;2022-10-16T18:17:07;60.20;;;26.70;;
73337;SDS011;61575;49.908;35.556;2022-10-16T18:20:09;70.25;;;30.75;;
73337;SDS011;61575;49.908;35.556;2022-10-16T18:23:11;79.68;;;31.52;;
73337;SDS011;61575;49.908;35.556;2022-10-16T18:26:13;71.45;;;30.50;;
73337;SDS011;61575;49.908;35.556;2022-10-16T18:29:16;81.10;;;33.78;;
73337;SDS011;61575;49.908;35.556;2022-10-16T18:32:18;85.40;;;34.00;;
73337;SDS011;61575;49.908;35.556;2022-10-16T18:35:20;74.37;;;32.20;;
73337;SDS011;61575;49.908;35.556;2022-10-16T18:38:22;68.38;;;29.02;;
73337;SDS011;61575;49.908;35.556;2022-10-16T18:41:24;58.28;;;26.02;;
73337;SDS011;61575;49.908;35.556;2022-10-16T18:44:27;58.55;;;26.88;;
73337;SDS011;61575;49.908;35.556;2022-10-16T18:47:31;53.22;;;24.33;;
73337;SDS011;61575;49.908;35.556;2022-10-16T18:50:33;43.63;;;21.40;;
73337;SDS011;61575;49.908;35.556;2022-10-16T18:53:36;40.10;;;19.30;;
73337;SDS011;61575;49.908;35.556;2022-10-16T18:56:39;36.15;;;18.90;;
73337;SDS011;61575;49.908;35.556;2022-10-16T18:59:41;44.38;;;22.38;;
73337;SDS011;61575;49.908;35.556;2022-10-16T19:02:43;47.03;;;23.90;;
73337;SDS011;61575;49.908;35.556;2022-10-16T19:05:45;44.53;;;22.40;;
73337;SDS011;61575;49.908;35.556;2022-10-16T19:08:46;30.17;;;16.88;;
73337;SDS011;61575;49.908;35.556;2022-10-16T19:11:48;26.15;;;14.68;;
73337;SDS011;61575;49.908;35.556;2022-10-16T19:14:56;24.10;;;14.05;;
73337;SDS011;61575;49.908;35.556;2022-10-16T19:17:58;24.33;;;13.80;;
73337;SDS011;61575;49.908;35.556;2022-10-16T19:21:03;26.17;;;14.55;;
73337;SDS011;61575;49.908;35.556;2022-10-16T19:24:07;24.60;;;14.43;;
73337;SDS011;61575;49.908;35.556;2022-10-16T19:27:13;26.77;;;15.15;;
73337;SDS011;61575;49.908;35.556;2022-10-16T19:30:15;27.35;;;14.82;;
73337;SDS011;61575;49.908;35.556;2022-10-16T19:33:17;34.30;;;17.30;;
73337;SDS011;61575;49.908;35.556;2022-10-16T19:36:20;37.17;;;20.77;;
73337;SDS011;61575;49.908;35.556;2022-10-16T19:39:27;34.97;;;19.05;;
73337;SDS011;61575;49.908;35.556;2022-10-16T19:42:29;36.20;;;19.75;;
73337;SDS011;61575;49.908;35.556;2022-10-16T19:45:31;35.92;;;21.45;;
73337;SDS011;61575;49.908;35.556;2022-10-16T19:48:34;38.70;;;21.63;;
73337;SDS011;61575;49.908;35.556;2022-10-16T19:51:36;41.40;;;20.87;;
73337;SDS011;61575;49.908;35.556;2022-10-16T19:54:39;36.08;;;19.95;;
73337;SDS011;61575;49.908;35.556;2022-10-16T19:57:41;39.27;;;20.67;;
73337;SDS011;61575;49.908;35.556;2022-10-16T20:00:43;35.03;;;18.65;;
73337;SDS011;61575;49.908;35.556;2022-10-16T20:03:46;36.20;;;18.95;;
73337;SDS011;61575;49.908;35.556;2022-10-16T20:06:48;38.35;;;20.45;;